sensor_id;sensor_type;location;lat;lon;timestamp;temperature;humidity
36002;DHT22;22070;50.922;5.430;2023-05-07T00:01:41;15.20;99.90
36002;DHT22;22070;50.922;5.430;2023-05-07T00:04:07;15.10;99.90
36002;DHT22;22070;50.922;5.430;2023-05-07T00:06:33;15.10;99.90
36002;DHT22;22070;50.922;5.430;2023-05-07T00:08:59;15.10;99.90
36002;DHT22;22070;50.922;5.430;2023-05-07T00:11:25;15.10;99.90
36002;DHT22;22070;50.922;5.430;2023-05-07T00:13:51;15.10;99.90
36002;DHT22;22070;50.922;5.430;2023-05-07T00:16:17;15.20;99.90
36002;DHT22;22070;50.922;5.430;2023-05-07T00:18:43;15.20;99.90
36002;DHT22;22070;50.922;5.430;2023-05-07T00:21:08;15.20;99.90
36002;DHT22;22070;50.922;5.430;2023-05-07T00:23:34;15.20;99.90
36002;DHT22;22070;50.922;5.430;2023-05-07T00:26:00;15.20;99.90
36002;DHT22;22070;50.922;5.430;2023-05-07T00:28:25;15.10;99.90
36002;DHT22;22070;50.922;5.430;2023-05-07T00:30:51;15.10;99.90
36002;DHT22;22070;50.922;5.430;2023-05-07T00:33:17;15.10;99.90
36002;DHT22;22070;50.922;5.430;2023-05-07T00:35:42;15.20;99.90
36002;DHT22;22070;50.922;5.430;2023-05-07T00:38:08;15.20;99.90
36002;DHT22;22070;50.922;5.430;2023-05-07T00:40:34;15.20;99.90
36002;DHT22;22070;50.922;5.430;2023-05-07T00:42:59;15.20;99.90
36002;DHT22;22070;50.922;5.430;2023-05-07T00:45:27;15.30;99.90
36002;DHT22;22070;50.922;5.430;2023-05-07T00:47:55;15.30;99.90
36002;DHT22;22070;50.922;5.430;2023-05-07T00:50:21;15.30;99.90
36002;DHT22;22070;50.922;5.430;2023-05-07T00:52:47;15.30;99.90
36002;DHT22;22070;50.922;5.430;2023-05-07T00:55:13;15.30;99.90
36002;DHT22;22070;50.922;5.430;2023-05-07T00:57:40;15.30;99.90
36002;DHT22;22070;50.922;5.430;2023-05-07T01:00:07;15.30;99.90
36002;DHT22;22070;50.922;5.430;2023-05-07T01:02:34;15.30;99.90
36002;DHT22;22070;50.922;5.430;2023-05-07T01:05:01;15.30;99.90
36002;DHT22;22070;50.922;5.430;2023-05-07T01:07:27;15.30;99.90
36002;DHT22;22070;50.922;5.430;2023-05-07T01:09:53;15.30;99.90
36002;DHT22;22070;50.922;5.430;2023-05-07T01:12:19;15.40;99.90
36002;DHT22;22070;50.922;5.430;2023-05-07T01:14:45;15.30;99.90
36002;DHT22;22070;50.922;5.430;2023-05-07T01:17:11;15.40;99.90
36002;DHT22;22070;50.922;5.430;2023-05-07T01:19:36;15.30;99.90
36002;DHT22;22070;50.922;5.430;2023-05-07T01:22:08;15.30;99.90
36002;DHT22;22070;50.922;5.430;2023-05-07T01:24:35;15.40;99.90
36002;DHT22;22070;50.922;5.430;2023-05-07T01:27:01;15.40;99.90
36002;DHT22;22070;50.922;5.430;2023-05-07T01:29:28;15.40;99.90
36002;DHT22;22070;50.922;5.430;2023-05-07T01:31:56;15.40;99.90
36002;DHT22;22070;50.922;5.430;2023-05-07T01:34:22;15.40;99.90
36002;DHT22;22070;50.922;5.430;2023-05-07T01:36:51;15.40;99.90
36002;DHT22;22070;50.922;5.430;2023-05-07T01:39:17;15.40;99.90
36002;DHT22;22070;50.922;5.430;2023-05-07T01:41:43;15.50;99.90
36002;DHT22;22070;50.922;5.430;2023-05-07T01:44:11;15.50;99.90
36002;DHT22;22070;50.922;5.430;2023-05-07T01:46:38;15.40;99.90
36002;DHT22;22070;50.922;5.430;2023-05-07T01:49:03;15.30;99.90
36002;DHT22;22070;50.922;5.430;2023-05-07T01:51:29;15.30;99.90
36002;DHT22;22070;50.922;5.430;2023-05-07T01:53:55;15.20;99.90
36002;DHT22;22070;50.922;5.430;2023-05-07T01:56:21;15.30;99.90
36002;DHT22;22070;50.922;5.430;2023-05-07T01:58:47;15.30;99.90
36002;DHT22;22070;50.922;5.430;2023-05-07T02:01:14;15.40;99.90
36002;DHT22;22070;50.922;5.430;2023-05-07T02:03:40;15.30;99.90
36002;DHT22;22070;50.922;5.430;2023-05-07T02:06:05;15.40;99.90
36002;DHT22;22070;50.922;5.430;2023-05-07T02:08:31;15.40;99.90
36002;DHT22;22070;50.922;5.430;2023-05-07T02:10:57;15.40;99.90
36002;DHT22;22070;50.922;5.430;2023-05-07T02:13:22;15.30;99.90
36002;DHT22;22070;50.922;5.430;2023-05-07T02:15:49;15.40;99.90
36002;DHT22;22070;50.922;5.430;2023-05-07T02:18:16;15.40;99.90
36002;DHT22;22070;50.922;5.430;2023-05-07T02:20:42;15.30;99.90
36002;DHT22;22070;50.922;5.430;2023-05-07T02:23:08;15.30;99.90
36002;DHT22;22070;50.922;5.430;2023-05-07T02:25:34;15.30;99.90
36002;DHT22;22070;50.922;5.430;2023-05-07T02:27:59;15.30;99.90
36002;DHT22;22070;50.922;5.430;2023-05-07T02:30:25;15.30;99.90
36002;DHT22;22070;50.922;5.430;2023-05-07T02:32:51;15.30;99.90
36002;DHT22;22070;50.922;5.430;2023-05-07T02:35:17;15.40;99.90
36002;DHT22;22070;50.922;5.430;2023-05-07T02:37:43;15.40;99.90
36002;DHT22;22070;50.922;5.430;2023-05-07T02:40:09;15.40;99.90
36002;DHT22;22070;50.922;5.430;2023-05-07T02:42:35;15.40;99.90
36002;DHT22;22070;50.922;5.430;2023-05-07T02:45:01;15.30;99.90
36002;DHT22;22070;50.922;5.430;2023-05-07T02:47:26;15.30;99.90
36002;DHT22;22070;50.922;5.430;2023-05-07T02:49:54;15.30;99.90
36002;DHT22;22070;50.922;5.430;2023-05-07T02:52:20;15.30;99.90
36002;DHT22;22070;50.922;5.430;2023-05-07T02:54:45;15.20;99.90
36002;DHT22;22070;50.922;5.430;2023-05-07T02:57:11;15.20;99.90
36002;DHT22;22070;50.922;5.430;2023-05-07T02:59:37;15.30;99.90
36002;DHT22;22070;50.922;5.430;2023-05-07T03:02:02;15.30;99.90
36002;DHT22;22070;50.922;5.430;2023-05-07T03:04:28;15.30;99.90
36002;DHT22;22070;50.922;5.430;2023-05-07T03:06:54;15.20;99.90
36002;DHT22;22070;50.922;5.430;2023-05-07T03:09:20;15.20;99.90
36002;DHT22;22070;50.922;5.430;2023-05-07T03:11:45;15.20;99.90
36002;DHT22;22070;50.922;5.430;2023-05-07T03:14:11;15.20;99.90
36002;DHT22;22070;50.922;5.430;2023-05-07T03:16:37;15.20;99.90
36002;DHT22;22070;50.922;5.430;2023-05-07T03:19:03;15.20;99.90
36002;DHT22;22070;50.922;5.430;2023-05-07T03:21:29;15.20;99.90
36002;DHT22;22070;50.922;5.430;2023-05-07T03:23:55;15.20;99.90
36002;DHT22;22070;50.922;5.430;2023-05-07T03:26:21;15.20;99.90
36002;DHT22;22070;50.922;5.430;2023-05-07T03:28:47;15.10;99.90
36002;DHT22;22070;50.922;5.430;2023-05-07T03:31:13;15.10;99.90
36002;DHT22;22070;50.922;5.430;2023-05-07T03:33:55;15.10;99.90
36002;DHT22;22070;50.922;5.430;2023-05-07T03:36:22;15.10;99.90
36002;DHT22;22070;50.922;5.430;2023-05-07T03:38:48;15.10;99.90
36002;DHT22;22070;50.922;5.430;2023-05-07T03:41:14;15.10;99.90
36002;DHT22;22070;50.922;5.430;2023-05-07T03:43:40;15.10;99.90
36002;DHT22;22070;50.922;5.430;2023-05-07T03:46:06;15.10;99.90
36002;DHT22;22070;50.922;5.430;2023-05-07T03:48:31;15.20;99.90
36002;DHT22;22070;50.922;5.430;2023-05-07T03:50:58;15.20;99.90
36002;DHT22;22070;50.922;5.430;2023-05-07T03:53:24;15.20;99.90
36002;DHT22;22070;50.922;5.430;2023-05-07T03:55:50;15.10;99.90
36002;DHT22;22070;50.922;5.430;2023-05-07T03:58:16;15.10;99.90
36002;DHT22;22070;50.922;5.430;2023-05-07T04:00:42;15.10;99.90
36002;DHT22;22070;50.922;5.430;2023-05-07T04:03:07;15.10;99.90
36002;DHT22;22070;50.922;5.430;2023-05-07T04:05:33;15.20;99.90
36002;DHT22;22070;50.922;5.430;2023-05-07T04:07:59;15.20;99.90
36002;DHT22;22070;50.922;5.430;2023-05-07T04:10:25;15.20;99.90
36002;DHT22;22070;50.922;5.430;2023-05-07T04:12:51;15.20;99.90
36002;DHT22;22070;50.922;5.430;2023-05-07T04:15:17;15.30;99.90
36002;DHT22;22070;50.922;5.430;2023-05-07T04:17:42;15.20;99.90
36002;DHT22;22070;50.922;5.430;2023-05-07T04:20:15;15.20;99.90
36002;DHT22;22070;50.922;5.430;2023-05-07T04:22:41;15.30;99.90
36002;DHT22;22070;50.922;5.430;2023-05-07T04:25:08;15.30;99.90
36002;DHT22;22070;50.922;5.430;2023-05-07T04:27:34;15.30;99.90
36002;DHT22;22070;50.922;5.430;2023-05-07T04:30:01;15.30;99.90
36002;DHT22;22070;50.922;5.430;2023-05-07T04:32:26;15.30;99.90
36002;DHT22;22070;50.922;5.430;2023-05-07T04:34:54;15.30;99.90
36002;DHT22;22070;50.922;5.430;2023-05-07T04:37:21;15.40;99.90
36002;DHT22;22070;50.922;5.430;2023-05-07T04:39:46;15.40;99.90
36002;DHT22;22070;50.922;5.430;2023-05-07T04:42:16;15.50;99.90
36002;DHT22;22070;50.922;5.430;2023-05-07T04:44:42;15.50;99.90
36002;DHT22;22070;50.922;5.430;2023-05-07T04:47:08;15.50;99.90
36002;DHT22;22070;50.922;5.430;2023-05-07T04:49:34;15.50;99.90
36002;DHT22;22070;50.922;5.430;2023-05-07T04:51:59;15.50;99.90
36002;DHT22;22070;50.922;5.430;2023-05-07T04:54:25;15.50;99.90
36002;DHT22;22070;50.922;5.430;2023-05-07T04:56:51;15.50;99.90
36002;DHT22;22070;50.922;5.430;2023-05-07T04:59:17;15.50;99.90
36002;DHT22;22070;50.922;5.430;2023-05-07T05:01:43;15.50;99.90
36002;DHT22;22070;50.922;5.430;2023-05-07T05:04:09;15.50;99.90
36002;DHT22;22070;50.922;5.430;2023-05-07T05:06:35;15.60;99.90
36002;DHT22;22070;50.922;5.430;2023-05-07T05:09:01;15.70;99.90
36002;DHT22;22070;50.922;5.430;2023-05-07T05:11:26;15.70;99.90
36002;DHT22;22070;50.922;5.430;2023-05-07T05:13:52;15.70;99.90
36002;DHT22;22070;50.922;5.430;2023-05-07T05:16:18;15.70;99.90
36002;DHT22;22070;50.922;5.430;2023-05-07T05:18:43;15.70;99.90
36002;DHT22;22070;50.922;5.430;2023-05-07T05:21:09;15.80;99.90
36002;DHT22;22070;50.922;5.430;2023-05-07T05:23:35;15.80;99.90
36002;DHT22;22070;50.922;5.430;2023-05-07T05:26:00;15.80;99.90
36002;DHT22;22070;50.922;5.430;2023-05-07T05:28:26;15.80;99.90
36002;DHT22;22070;50.922;5.430;2023-05-07T05:30:53;15.80;99.90
36002;DHT22;22070;50.922;5.430;2023-05-07T05:33:18;15.90;99.90
36002;DHT22;22070;50.922;5.430;2023-05-07T05:35:44;15.90;99.90
36002;DHT22;22070;50.922;5.430;2023-05-07T05:38:10;15.90;99.90
36002;DHT22;22070;50.922;5.430;2023-05-07T05:40:36;16.00;99.90
36002;DHT22;22070;50.922;5.430;2023-05-07T05:43:01;16.00;99.90
36002;DHT22;22070;50.922;5.430;2023-05-07T05:45:27;16.10;99.90
36002;DHT22;22070;50.922;5.430;2023-05-07T05:47:53;16.10;99.90
36002;DHT22;22070;50.922;5.430;2023-05-07T05:50:18;16.20;99.90
36002;DHT22;22070;50.922;5.430;2023-05-07T05:52:44;16.30;99.90
36002;DHT22;22070;50.922;5.430;2023-05-07T05:55:10;16.30;99.90
36002;DHT22;22070;50.922;5.430;2023-05-07T05:57:36;16.40;99.90
36002;DHT22;22070;50.922;5.430;2023-05-07T06:00:02;16.50;99.90
36002;DHT22;22070;50.922;5.430;2023-05-07T06:02:28;16.60;99.90
36002;DHT22;22070;50.922;5.430;2023-05-07T06:04:54;16.60;99.90
36002;DHT22;22070;50.922;5.430;2023-05-07T06:07:19;16.70;99.90
36002;DHT22;22070;50.922;5.430;2023-05-07T06:09:45;16.80;99.90
36002;DHT22;22070;50.922;5.430;2023-05-07T06:12:11;16.80;99.90
36002;DHT22;22070;50.922;5.430;2023-05-07T06:14:37;16.90;99.90
36002;DHT22;22070;50.922;5.430;2023-05-07T06:17:03;17.00;99.90
36002;DHT22;22070;50.922;5.430;2023-05-07T06:19:28;17.00;99.90
36002;DHT22;22070;50.922;5.430;2023-05-07T06:21:54;17.10;99.90
36002;DHT22;22070;50.922;5.430;2023-05-07T06:24:22;17.10;99.90
36002;DHT22;22070;50.922;5.430;2023-05-07T06:26:47;17.10;99.90
36002;DHT22;22070;50.922;5.430;2023-05-07T06:29:13;17.20;99.90
36002;DHT22;22070;50.922;5.430;2023-05-07T06:31:39;17.30;99.90
36002;DHT22;22070;50.922;5.430;2023-05-07T06:34:05;17.30;99.90
36002;DHT22;22070;50.922;5.430;2023-05-07T06:36:30;17.40;99.90
36002;DHT22;22070;50.922;5.430;2023-05-07T06:38:56;17.50;99.90
36002;DHT22;22070;50.922;5.430;2023-05-07T06:41:22;17.50;99.90
36002;DHT22;22070;50.922;5.430;2023-05-07T06:43:47;17.50;99.90
36002;DHT22;22070;50.922;5.430;2023-05-07T06:46:13;17.60;99.90
36002;DHT22;22070;50.922;5.430;2023-05-07T06:48:39;17.70;99.90
36002;DHT22;22070;50.922;5.430;2023-05-07T06:51:04;17.80;99.90
36002;DHT22;22070;50.922;5.430;2023-05-07T06:53:30;17.80;99.90
36002;DHT22;22070;50.922;5.430;2023-05-07T06:55:56;17.80;99.90
36002;DHT22;22070;50.922;5.430;2023-05-07T06:58:22;17.80;99.90
36002;DHT22;22070;50.922;5.430;2023-05-07T07:00:48;17.80;99.90
36002;DHT22;22070;50.922;5.430;2023-05-07T07:03:14;17.90;99.90
36002;DHT22;22070;50.922;5.430;2023-05-07T07:05:42;17.90;99.90
36002;DHT22;22070;50.922;5.430;2023-05-07T07:08:09;17.90;99.90
36002;DHT22;22070;50.922;5.430;2023-05-07T07:10:35;18.10;99.90
36002;DHT22;22070;50.922;5.430;2023-05-07T07:13:00;18.20;99.90
36002;DHT22;22070;50.922;5.430;2023-05-07T07:15:26;18.10;99.90
36002;DHT22;22070;50.922;5.430;2023-05-07T07:17:52;18.20;99.90
36002;DHT22;22070;50.922;5.430;2023-05-07T07:20:17;18.10;99.90
36002;DHT22;22070;50.922;5.430;2023-05-07T07:22:43;18.20;99.90
36002;DHT22;22070;50.922;5.430;2023-05-07T07:25:09;18.20;99.90
36002;DHT22;22070;50.922;5.430;2023-05-07T07:27:35;18.30;99.90
36002;DHT22;22070;50.922;5.430;2023-05-07T07:30:01;18.50;99.90
36002;DHT22;22070;50.922;5.430;2023-05-07T07:32:27;18.40;99.90
36002;DHT22;22070;50.922;5.430;2023-05-07T07:34:52;18.60;99.90
36002;DHT22;22070;50.922;5.430;2023-05-07T07:37:18;18.60;99.90
36002;DHT22;22070;50.922;5.430;2023-05-07T07:39:44;18.80;99.90
36002;DHT22;22070;50.922;5.430;2023-05-07T07:42:09;18.90;99.90
36002;DHT22;22070;50.922;5.430;2023-05-07T07:44:35;18.90;99.90
36002;DHT22;22070;50.922;5.430;2023-05-07T07:47:00;18.90;99.90
36002;DHT22;22070;50.922;5.430;2023-05-07T07:49:26;19.10;99.90
36002;DHT22;22070;50.922;5.430;2023-05-07T07:51:52;19.20;99.90
36002;DHT22;22070;50.922;5.430;2023-05-07T07:54:18;19.20;99.90
36002;DHT22;22070;50.922;5.430;2023-05-07T07:56:43;19.20;99.90
36002;DHT22;22070;50.922;5.430;2023-05-07T07:59:09;19.40;99.90
36002;DHT22;22070;50.922;5.430;2023-05-07T08:01:35;19.40;99.90
36002;DHT22;22070;50.922;5.430;2023-05-07T08:04:00;19.50;99.90
36002;DHT22;22070;50.922;5.430;2023-05-07T08:06:28;19.60;99.90
36002;DHT22;22070;50.922;5.430;2023-05-07T08:08:54;19.70;99.90
36002;DHT22;22070;50.922;5.430;2023-05-07T08:11:20;19.80;99.90
36002;DHT22;22070;50.922;5.430;2023-05-07T08:13:46;19.90;99.90
36002;DHT22;22070;50.922;5.430;2023-05-07T08:16:13;20.00;99.90
36002;DHT22;22070;50.922;5.430;2023-05-07T08:18:39;19.90;99.90
36002;DHT22;22070;50.922;5.430;2023-05-07T08:21:05;19.90;99.90
36002;DHT22;22070;50.922;5.430;2023-05-07T08:23:30;20.00;99.90
36002;DHT22;22070;50.922;5.430;2023-05-07T08:25:57;20.10;99.90
36002;DHT22;22070;50.922;5.430;2023-05-07T08:28:22;20.20;99.90
36002;DHT22;22070;50.922;5.430;2023-05-07T08:30:50;20.20;99.90
36002;DHT22;22070;50.922;5.430;2023-05-07T08:33:15;20.20;99.90
36002;DHT22;22070;50.922;5.430;2023-05-07T08:35:41;20.00;99.90
36002;DHT22;22070;50.922;5.430;2023-05-07T08:38:07;20.10;99.90
36002;DHT22;22070;50.922;5.430;2023-05-07T08:40:36;20.20;99.90
36002;DHT22;22070;50.922;5.430;2023-05-07T08:43:03;20.30;99.90
36002;DHT22;22070;50.922;5.430;2023-05-07T08:45:30;20.50;99.90
36002;DHT22;22070;50.922;5.430;2023-05-07T08:48:09;20.40;99.90
36002;DHT22;22070;50.922;5.430;2023-05-07T08:50:38;20.40;99.90
36002;DHT22;22070;50.922;5.430;2023-05-07T08:53:04;20.30;99.90
36002;DHT22;22070;50.922;5.430;2023-05-07T08:55:30;20.30;99.90
36002;DHT22;22070;50.922;5.430;2023-05-07T08:57:56;20.30;99.90
36002;DHT22;22070;50.922;5.430;2023-05-07T09:00:22;20.20;99.90
36002;DHT22;22070;50.922;5.430;2023-05-07T09:02:48;20.00;99.90
36002;DHT22;22070;50.922;5.430;2023-05-07T09:05:13;19.90;99.90
36002;DHT22;22070;50.922;5.430;2023-05-07T09:07:39;20.00;99.90
36002;DHT22;22070;50.922;5.430;2023-05-07T09:10:05;19.90;99.90
36002;DHT22;22070;50.922;5.430;2023-05-07T09:12:31;20.10;99.90
36002;DHT22;22070;50.922;5.430;2023-05-07T09:14:59;20.30;99.90
36002;DHT22;22070;50.922;5.430;2023-05-07T09:17:25;20.30;99.90
36002;DHT22;22070;50.922;5.430;2023-05-07T09:19:50;20.40;99.90
36002;DHT22;22070;50.922;5.430;2023-05-07T09:22:16;20.40;99.90
36002;DHT22;22070;50.922;5.430;2023-05-07T09:24:48;20.40;99.90
36002;DHT22;22070;50.922;5.430;2023-05-07T09:27:13;20.50;99.90
36002;DHT22;22070;50.922;5.430;2023-05-07T09:29:39;20.50;99.90
36002;DHT22;22070;50.922;5.430;2023-05-07T09:32:06;20.60;99.90
36002;DHT22;22070;50.922;5.430;2023-05-07T09:34:32;20.70;99.90
36002;DHT22;22070;50.922;5.430;2023-05-07T09:37:05;20.70;99.90
36002;DHT22;22070;50.922;5.430;2023-05-07T09:42:06;20.90;99.90
36002;DHT22;22070;50.922;5.430;2023-05-07T09:44:33;20.90;99.90
36002;DHT22;22070;50.922;5.430;2023-05-07T09:47:00;21.10;99.90
36002;DHT22;22070;50.922;5.430;2023-05-07T09:49:29;21.20;99.90
36002;DHT22;22070;50.922;5.430;2023-05-07T09:52:00;21.20;99.90
36002;DHT22;22070;50.922;5.430;2023-05-07T09:54:26;21.30;99.90
36002;DHT22;22070;50.922;5.430;2023-05-07T09:56:56;21.10;99.90
36002;DHT22;22070;50.922;5.430;2023-05-07T09:59:23;21.10;99.90
36002;DHT22;22070;50.922;5.430;2023-05-07T10:01:49;21.10;99.90
36002;DHT22;22070;50.922;5.430;2023-05-07T10:04:16;21.10;99.90
36002;DHT22;22070;50.922;5.430;2023-05-07T10:06:43;20.90;99.90
36002;DHT22;22070;50.922;5.430;2023-05-07T10:09:10;21.00;99.90
36002;DHT22;22070;50.922;5.430;2023-05-07T10:11:37;20.90;99.90
36002;DHT22;22070;50.922;5.430;2023-05-07T10:14:03;20.70;99.90
36002;DHT22;22070;50.922;5.430;2023-05-07T10:16:32;20.60;99.90
36002;DHT22;22070;50.922;5.430;2023-05-07T10:19:03;20.50;99.90
36002;DHT22;22070;50.922;5.430;2023-05-07T10:21:29;20.60;99.90
36002;DHT22;22070;50.922;5.430;2023-05-07T10:24:00;20.50;99.90
36002;DHT22;22070;50.922;5.430;2023-05-07T10:26:30;20.60;99.90
36002;DHT22;22070;50.922;5.430;2023-05-07T10:29:02;20.60;99.90
36002;DHT22;22070;50.922;5.430;2023-05-07T10:31:42;20.50;99.90
36002;DHT22;22070;50.922;5.430;2023-05-07T10:34:11;20.50;99.90
36002;DHT22;22070;50.922;5.430;2023-05-07T10:36:38;20.30;99.90
36002;DHT22;22070;50.922;5.430;2023-05-07T10:39:05;20.20;99.90
36002;DHT22;22070;50.922;5.430;2023-05-07T10:41:31;20.10;99.90
36002;DHT22;22070;50.922;5.430;2023-05-07T10:43:57;20.10;99.90
36002;DHT22;22070;50.922;5.430;2023-05-07T10:46:26;20.00;99.90
36002;DHT22;22070;50.922;5.430;2023-05-07T10:51:28;19.90;99.90
36002;DHT22;22070;50.922;5.430;2023-05-07T10:54:18;19.80;99.90
36002;DHT22;22070;50.922;5.430;2023-05-07T10:56:44;19.90;99.90
36002;DHT22;22070;50.922;5.430;2023-05-07T11:02:02;19.80;99.90
36002;DHT22;22070;50.922;5.430;2023-05-07T11:04:29;19.80;99.90
36002;DHT22;22070;50.922;5.430;2023-05-07T11:15:13;19.70;99.90
36002;DHT22;22070;50.922;5.430;2023-05-07T11:17:59;19.60;99.90
36002;DHT22;22070;50.922;5.430;2023-05-07T11:26:10;19.50;99.90
36002;DHT22;22070;50.922;5.430;2023-05-07T11:28:41;19.50;99.90
36002;DHT22;22070;50.922;5.430;2023-05-07T11:31:07;19.60;99.90
36002;DHT22;22070;50.922;5.430;2023-05-07T11:33:33;19.50;99.90
36002;DHT22;22070;50.922;5.430;2023-05-07T11:36:01;19.50;99.90
36002;DHT22;22070;50.922;5.430;2023-05-07T11:38:29;19.50;99.90
36002;DHT22;22070;50.922;5.430;2023-05-07T11:40:59;19.30;99.90
36002;DHT22;22070;50.922;5.430;2023-05-07T11:43:26;19.50;99.90
36002;DHT22;22070;50.922;5.430;2023-05-07T11:45:52;19.40;99.90
36002;DHT22;22070;50.922;5.430;2023-05-07T11:48:18;19.50;99.90
36002;DHT22;22070;50.922;5.430;2023-05-07T11:50:59;19.40;99.90
36002;DHT22;22070;50.922;5.430;2023-05-07T11:53:35;19.50;99.90
36002;DHT22;22070;50.922;5.430;2023-05-07T11:56:12;19.50;99.90
36002;DHT22;22070;50.922;5.430;2023-05-07T11:58:39;19.40;99.90
36002;DHT22;22070;50.922;5.430;2023-05-07T12:01:08;19.40;99.90
36002;DHT22;22070;50.922;5.430;2023-05-07T12:03:40;19.30;99.90
36002;DHT22;22070;50.922;5.430;2023-05-07T12:06:08;19.30;99.90
36002;DHT22;22070;50.922;5.430;2023-05-07T12:08:37;19.10;99.90
36002;DHT22;22070;50.922;5.430;2023-05-07T12:11:13;19.20;99.90
36002;DHT22;22070;50.922;5.430;2023-05-07T12:13:39;19.10;99.90
36002;DHT22;22070;50.922;5.430;2023-05-07T12:16:06;19.20;99.90
36002;DHT22;22070;50.922;5.430;2023-05-07T12:18:33;19.30;99.90
36002;DHT22;22070;50.922;5.430;2023-05-07T12:20:59;19.30;99.90
36002;DHT22;22070;50.922;5.430;2023-05-07T12:23:25;19.20;99.90
36002;DHT22;22070;50.922;5.430;2023-05-07T12:25:51;19.20;99.90
36002;DHT22;22070;50.922;5.430;2023-05-07T12:28:18;19.10;99.90
36002;DHT22;22070;50.922;5.430;2023-05-07T12:30:44;19.10;99.90
36002;DHT22;22070;50.922;5.430;2023-05-07T12:33:10;19.10;99.90
36002;DHT22;22070;50.922;5.430;2023-05-07T12:35:41;19.30;99.90
36002;DHT22;22070;50.922;5.430;2023-05-07T12:38:14;19.30;99.90
36002;DHT22;22070;50.922;5.430;2023-05-07T12:40:48;19.40;99.90
36002;DHT22;22070;50.922;5.430;2023-05-07T12:43:20;19.30;99.90
36002;DHT22;22070;50.922;5.430;2023-05-07T12:45:49;19.40;99.90
36002;DHT22;22070;50.922;5.430;2023-05-07T12:48:14;19.40;99.90
36002;DHT22;22070;50.922;5.430;2023-05-07T12:50:41;19.50;99.90
36002;DHT22;22070;50.922;5.430;2023-05-07T12:53:07;19.50;99.90
36002;DHT22;22070;50.922;5.430;2023-05-07T12:55:45;19.50;99.90
36002;DHT22;22070;50.922;5.430;2023-05-07T12:58:27;19.60;99.90
36002;DHT22;22070;50.922;5.430;2023-05-07T13:00:54;19.60;99.90
36002;DHT22;22070;50.922;5.430;2023-05-07T13:03:33;19.60;99.90
36002;DHT22;22070;50.922;5.430;2023-05-07T13:08:35;19.70;99.90
36002;DHT22;22070;50.922;5.430;2023-05-07T13:11:03;19.70;99.90
36002;DHT22;22070;50.922;5.430;2023-05-07T13:13:33;19.70;99.90
36002;DHT22;22070;50.922;5.430;2023-05-07T13:16:03;19.70;99.90
36002;DHT22;22070;50.922;5.430;2023-05-07T13:18:33;19.80;99.90
36002;DHT22;22070;50.922;5.430;2023-05-07T13:20:59;19.90;99.90
36002;DHT22;22070;50.922;5.430;2023-05-07T13:23:25;19.90;99.90
36002;DHT22;22070;50.922;5.430;2023-05-07T13:25:51;19.90;99.90
36002;DHT22;22070;50.922;5.430;2023-05-07T13:28:19;20.10;99.90
36002;DHT22;22070;50.922;5.430;2023-05-07T13:30:46;20.10;99.90
36002;DHT22;22070;50.922;5.430;2023-05-07T13:33:11;20.10;99.90
36002;DHT22;22070;50.922;5.430;2023-05-07T13:35:37;20.00;99.90
36002;DHT22;22070;50.922;5.430;2023-05-07T13:38:04;20.00;99.90
36002;DHT22;22070;50.922;5.430;2023-05-07T13:40:30;20.00;99.90
36002;DHT22;22070;50.922;5.430;2023-05-07T13:42:57;20.10;99.90
36002;DHT22;22070;50.922;5.430;2023-05-07T13:45:24;20.30;99.90
36002;DHT22;22070;50.922;5.430;2023-05-07T13:47:51;20.40;99.90
36002;DHT22;22070;50.922;5.430;2023-05-07T13:50:17;20.40;99.90
36002;DHT22;22070;50.922;5.430;2023-05-07T13:52:44;20.40;99.90
36002;DHT22;22070;50.922;5.430;2023-05-07T13:55:23;20.30;99.90
36002;DHT22;22070;50.922;5.430;2023-05-07T13:58:01;20.20;99.90
36002;DHT22;22070;50.922;5.430;2023-05-07T14:00:28;20.40;99.90
36002;DHT22;22070;50.922;5.430;2023-05-07T14:02:55;20.50;99.90
36002;DHT22;22070;50.922;5.430;2023-05-07T14:05:21;20.40;99.90
36002;DHT22;22070;50.922;5.430;2023-05-07T14:07:51;20.30;99.90
36002;DHT22;22070;50.922;5.430;2023-05-07T14:10:18;20.30;99.90
36002;DHT22;22070;50.922;5.430;2023-05-07T14:12:44;20.30;99.90
36002;DHT22;22070;50.922;5.430;2023-05-07T14:15:10;20.30;99.90
36002;DHT22;22070;50.922;5.430;2023-05-07T14:17:36;20.40;99.90
36002;DHT22;22070;50.922;5.430;2023-05-07T14:20:02;20.50;99.90
36002;DHT22;22070;50.922;5.430;2023-05-07T14:22:28;20.50;99.90
36002;DHT22;22070;50.922;5.430;2023-05-07T14:24:54;20.40;99.90
36002;DHT22;22070;50.922;5.430;2023-05-07T14:27:19;20.30;99.90
36002;DHT22;22070;50.922;5.430;2023-05-07T14:29:45;20.30;99.90
36002;DHT22;22070;50.922;5.430;2023-05-07T14:32:19;20.40;99.90
36002;DHT22;22070;50.922;5.430;2023-05-07T14:34:45;20.50;99.90
36002;DHT22;22070;50.922;5.430;2023-05-07T14:37:11;20.50;99.90
36002;DHT22;22070;50.922;5.430;2023-05-07T14:39:37;20.60;99.90
36002;DHT22;22070;50.922;5.430;2023-05-07T14:42:02;20.80;99.90
36002;DHT22;22070;50.922;5.430;2023-05-07T14:44:28;20.90;99.90
36002;DHT22;22070;50.922;5.430;2023-05-07T14:46:54;20.80;99.90
36002;DHT22;22070;50.922;5.430;2023-05-07T14:49:20;20.90;99.90
36002;DHT22;22070;50.922;5.430;2023-05-07T14:51:46;21.10;99.90
36002;DHT22;22070;50.922;5.430;2023-05-07T14:54:13;21.00;99.90
36002;DHT22;22070;50.922;5.430;2023-05-07T14:56:39;20.90;99.90
36002;DHT22;22070;50.922;5.430;2023-05-07T14:59:05;20.80;99.90
36002;DHT22;22070;50.922;5.430;2023-05-07T15:01:31;20.80;99.90
36002;DHT22;22070;50.922;5.430;2023-05-07T15:03:57;20.80;99.90
36002;DHT22;22070;50.922;5.430;2023-05-07T15:06:22;21.00;99.90
36002;DHT22;22070;50.922;5.430;2023-05-07T15:08:48;21.00;99.90
36002;DHT22;22070;50.922;5.430;2023-05-07T15:11:14;21.10;99.90
36002;DHT22;22070;50.922;5.430;2023-05-07T15:13:42;21.00;99.90
36002;DHT22;22070;50.922;5.430;2023-05-07T15:16:07;20.90;99.90
36002;DHT22;22070;50.922;5.430;2023-05-07T15:18:33;20.80;99.90
36002;DHT22;22070;50.922;5.430;2023-05-07T15:20:59;20.70;99.90
36002;DHT22;22070;50.922;5.430;2023-05-07T15:23:24;20.80;99.90
36002;DHT22;22070;50.922;5.430;2023-05-07T15:25:51;20.80;99.90
36002;DHT22;22070;50.922;5.430;2023-05-07T15:28:17;20.80;99.90
36002;DHT22;22070;50.922;5.430;2023-05-07T15:30:43;21.00;99.90
36002;DHT22;22070;50.922;5.430;2023-05-07T15:33:08;21.00;99.90
36002;DHT22;22070;50.922;5.430;2023-05-07T15:35:34;21.20;99.90
36002;DHT22;22070;50.922;5.430;2023-05-07T15:38:00;21.20;99.90
36002;DHT22;22070;50.922;5.430;2023-05-07T15:40:29;21.10;99.90
36002;DHT22;22070;50.922;5.430;2023-05-07T15:42:55;21.00;99.90
36002;DHT22;22070;50.922;5.430;2023-05-07T15:45:22;20.90;99.90
36002;DHT22;22070;50.922;5.430;2023-05-07T15:47:48;20.80;99.90
36002;DHT22;22070;50.922;5.430;2023-05-07T15:50:14;20.90;99.90
36002;DHT22;22070;50.922;5.430;2023-05-07T15:52:39;20.90;99.90